sensor_id;sensor_type;location;lat;lon;timestamp;pressure;altitude;pressure_sealevel;temperature;humidity
15604;BME280;7902;49.042;9.092;2023-02-20T00:01:51;100191.53;;;13.34;57.92
15604;BME280;7902;49.042;9.092;2023-02-20T00:04:17;100190.88;;;13.17;58.74
15604;BME280;7902;49.042;9.092;2023-02-20T00:06:44;100184.22;;;13.12;59.02
15604;BME280;7902;49.042;9.092;2023-02-20T00:09:10;100178.72;;;13.15;58.02
15604;BME280;7902;49.042;9.092;2023-02-20T00:11:36;100188.69;;;13.10;58.92
15604;BME280;7902;49.042;9.092;2023-02-20T00:14:02;100183.47;;;12.96;58.91
15604;BME280;7902;49.042;9.092;2023-02-20T00:16:28;100185.34;;;13.08;59.26
15604;BME280;7902;49.042;9.092;2023-02-20T00:18:54;100182.13;;;13.17;58.74
15604;BME280;7902;49.042;9.092;2023-02-20T00:21:20;100182.84;;;13.19;58.01
15604;BME280;7902;49.042;9.092;2023-02-20T00:23:46;100203.00;;;13.20;58.26
15604;BME280;7902;49.042;9.092;2023-02-20T00:26:13;100203.78;;;13.08;58.96
15604;BME280;7902;49.042;9.092;2023-02-20T00:28:40;100203.41;;;13.14;58.16
15604;BME280;7902;49.042;9.092;2023-02-20T00:31:07;100207.16;;;13.10;58.63
15604;BME280;7902;49.042;9.092;2023-02-20T00:33:33;100205.25;;;12.99;58.59
15604;BME280;7902;49.042;9.092;2023-02-20T00:35:59;100209.44;;;13.02;58.55
15604;BME280;7902;49.042;9.092;2023-02-20T00:38:25;100210.84;;;13.07;58.38
15604;BME280;7902;49.042;9.092;2023-02-20T00:40:51;100214.16;;;13.11;58.51
15604;BME280;7902;49.042;9.092;2023-02-20T00:43:17;100221.78;;;13.15;58.37
15604;BME280;7902;49.042;9.092;2023-02-20T00:45:43;100221.50;;;13.06;58.71
15604;BME280;7902;49.042;9.092;2023-02-20T00:48:08;100212.28;;;12.99;58.57
15604;BME280;7902;49.042;9.092;2023-02-20T00:50:34;100212.84;;;13.04;58.25
15604;BME280;7902;49.042;9.092;2023-02-20T00:53:00;100209.25;;;13.05;58.25
15604;BME280;7902;49.042;9.092;2023-02-20T00:55:26;100207.56;;;13.04;58.24
15604;BME280;7902;49.042;9.092;2023-02-20T00:57:52;100205.25;;;12.99;58.35
15604;BME280;7902;49.042;9.092;2023-02-20T01:00:21;100213.25;;;12.98;58.75
15604;BME280;7902;49.042;9.092;2023-02-20T01:02:48;100206.84;;;12.88;58.69
15604;BME280;7902;49.042;9.092;2023-02-20T01:05:14;100202.34;;;12.90;58.55
15604;BME280;7902;49.042;9.092;2023-02-20T01:07:40;100195.69;;;12.84;58.73
15604;BME280;7902;49.042;9.092;2023-02-20T01:10:07;100191.09;;;12.73;58.56
15604;BME280;7902;49.042;9.092;2023-02-20T01:12:33;100194.19;;;12.80;58.29
15604;BME280;7902;49.042;9.092;2023-02-20T01:14:59;100194.66;;;12.72;58.90
15604;BME280;7902;49.042;9.092;2023-02-20T01:17:24;100184.41;;;12.68;58.81
15604;BME280;7902;49.042;9.092;2023-02-20T01:19:50;100183.38;;;12.70;59.06
15604;BME280;7902;49.042;9.092;2023-02-20T01:22:16;100181.50;;;12.58;59.51
15604;BME280;7902;49.042;9.092;2023-02-20T01:24:42;100189.59;;;12.69;58.62
15604;BME280;7902;49.042;9.092;2023-02-20T01:27:08;100185.34;;;12.67;58.33
15604;BME280;7902;49.042;9.092;2023-02-20T01:29:34;100195.91;;;12.53;59.01
15604;BME280;7902;49.042;9.092;2023-02-20T01:32:00;100191.31;;;12.56;58.56
15604;BME280;7902;49.042;9.092;2023-02-20T01:34:26;100195.44;;;12.60;58.82
15604;BME280;7902;49.042;9.092;2023-02-20T01:36:54;100193.41;;;12.51;59.01
15604;BME280;7902;49.042;9.092;2023-02-20T01:39:22;100189.84;;;12.52;59.00
15604;BME280;7902;49.042;9.092;2023-02-20T01:41:52;100189.34;;;12.60;58.59
15604;BME280;7902;49.042;9.092;2023-02-20T01:44:23;100188.56;;;12.58;59.06
15604;BME280;7902;49.042;9.092;2023-02-20T01:46:52;100187.91;;;12.54;58.73
15604;BME280;7902;49.042;9.092;2023-02-20T01:49:25;100191.13;;;12.45;58.98
15604;BME280;7902;49.042;9.092;2023-02-20T01:51:56;100187.31;;;12.37;58.92
15604;BME280;7902;49.042;9.092;2023-02-20T01:54:25;100192.94;;;12.45;58.99
15604;BME280;7902;49.042;9.092;2023-02-20T01:56:52;100185.31;;;12.40;59.02
15604;BME280;7902;49.042;9.092;2023-02-20T01:59:20;100181.38;;;12.33;59.80
15604;BME280;7902;49.042;9.092;2023-02-20T02:01:47;100179.13;;;12.27;59.64
15604;BME280;7902;49.042;9.092;2023-02-20T02:04:14;100177.50;;;12.24;59.58
15604;BME280;7902;49.042;9.092;2023-02-20T02:06:43;100171.97;;;12.29;59.34
15604;BME280;7902;49.042;9.092;2023-02-20T02:09:26;100165.03;;;12.28;59.23
15604;BME280;7902;49.042;9.092;2023-02-20T02:11:58;100163.53;;;12.24;59.24
15604;BME280;7902;49.042;9.092;2023-02-20T02:14:24;100168.78;;;12.24;59.79
15604;BME280;7902;49.042;9.092;2023-02-20T02:25:57;100174.59;;;12.15;59.81
15604;BME280;7902;49.042;9.092;2023-02-20T02:34:18;100176.88;;;12.07;60.26
15604;BME280;7902;49.042;9.092;2023-02-20T02:39:41;100169.09;;;12.05;59.82
15604;BME280;7902;49.042;9.092;2023-02-20T02:44:55;100165.88;;;12.00;60.34
15604;BME280;7902;49.042;9.092;2023-02-20T02:50:39;100148.97;;;11.90;60.62
15604;BME280;7902;49.042;9.092;2023-02-20T02:53:08;100158.56;;;11.91;60.09
15604;BME280;7902;49.042;9.092;2023-02-20T02:55:34;100150.84;;;11.88;60.51
15604;BME280;7902;49.042;9.092;2023-02-20T02:58:02;100143.00;;;11.86;60.07
15604;BME280;7902;49.042;9.092;2023-02-20T03:00:42;100152.31;;;11.78;60.70
15604;BME280;7902;49.042;9.092;2023-02-20T03:05:54;100159.19;;;11.80;60.36
15604;BME280;7902;49.042;9.092;2023-02-20T03:08:28;100153.16;;;11.78;60.66
15604;BME280;7902;49.042;9.092;2023-02-20T03:11:00;100143.22;;;11.83;60.02
15604;BME280;7902;49.042;9.092;2023-02-20T03:13:29;100141.16;;;11.88;60.76
15604;BME280;7902;49.042;9.092;2023-02-20T03:16:20;100146.63;;;11.85;60.16
15604;BME280;7902;49.042;9.092;2023-02-20T03:18:49;100151.88;;;11.85;60.16
15604;BME280;7902;49.042;9.092;2023-02-20T03:21:19;100150.47;;;11.94;60.36
15604;BME280;7902;49.042;9.092;2023-02-20T03:23:50;100145.84;;;11.83;60.69
15604;BME280;7902;49.042;9.092;2023-02-20T03:26:27;100156.38;;;11.83;60.24
15604;BME280;7902;49.042;9.092;2023-02-20T03:29:10;100160.63;;;11.86;60.74
15604;BME280;7902;49.042;9.092;2023-02-20T03:31:51;100151.97;;;11.84;60.17
15604;BME280;7902;49.042;9.092;2023-02-20T03:34:39;100154.31;;;11.88;60.60
15604;BME280;7902;49.042;9.092;2023-02-20T03:37:26;100153.53;;;11.86;60.19
15604;BME280;7902;49.042;9.092;2023-02-20T03:40:14;100156.56;;;11.80;60.93
15604;BME280;7902;49.042;9.092;2023-02-20T03:43:04;100158.28;;;11.81;60.50
15604;BME280;7902;49.042;9.092;2023-02-20T03:45:46;100149.81;;;11.76;60.90
15604;BME280;7902;49.042;9.092;2023-02-20T03:48:59;100153.78;;;11.68;60.42
15604;BME280;7902;49.042;9.092;2023-02-20T03:51:27;100149.88;;;11.75;60.87
15604;BME280;7902;49.042;9.092;2023-02-20T03:54:11;100155.31;;;11.72;60.87
15604;BME280;7902;49.042;9.092;2023-02-20T03:56:42;100147.41;;;11.72;60.47
15604;BME280;7902;49.042;9.092;2023-02-20T03:59:14;100146.84;;;11.67;60.64
15604;BME280;7902;49.042;9.092;2023-02-20T04:01:43;100152.28;;;11.64;60.26
15604;BME280;7902;49.042;9.092;2023-02-20T04:04:16;100141.28;;;11.57;61.36
15604;BME280;7902;49.042;9.092;2023-02-20T04:06:45;100147.41;;;11.72;60.32
15604;BME280;7902;49.042;9.092;2023-02-20T04:09:16;100146.28;;;11.62;61.24
15604;BME280;7902;49.042;9.092;2023-02-20T04:11:50;100137.34;;;11.64;60.46
15604;BME280;7902;49.042;9.092;2023-02-20T04:14:20;100136.50;;;11.64;61.11
15604;BME280;7902;49.042;9.092;2023-02-20T04:16:50;100140.16;;;11.61;60.97
15604;BME280;7902;49.042;9.092;2023-02-20T04:19:20;100141.09;;;11.60;61.27
15604;BME280;7902;49.042;9.092;2023-02-20T04:21:54;100132.94;;;11.65;60.41
15604;BME280;7902;49.042;9.092;2023-02-20T04:24:28;100130.84;;;11.56;61.72
15604;BME280;7902;49.042;9.092;2023-02-20T04:26:55;100131.34;;;11.62;60.71
15604;BME280;7902;49.042;9.092;2023-02-20T04:29:21;100134.25;;;11.58;60.42
15604;BME280;7902;49.042;9.092;2023-02-20T04:31:47;100139.78;;;11.53;60.96
15604;BME280;7902;49.042;9.092;2023-02-20T04:34:13;100151.13;;;11.54;60.90
15604;BME280;7902;49.042;9.092;2023-02-20T04:36:39;100144.84;;;11.56;60.71
15604;BME280;7902;49.042;9.092;2023-02-20T04:39:05;100161.66;;;11.54;60.68
15604;BME280;7902;49.042;9.092;2023-02-20T04:41:31;100156.81;;;11.62;60.50
15604;BME280;7902;49.042;9.092;2023-02-20T04:43:57;100149.19;;;11.57;60.37
15604;BME280;7902;49.042;9.092;2023-02-20T04:46:41;100156.53;;;11.66;60.61
15604;BME280;7902;49.042;9.092;2023-02-20T04:49:07;100159.50;;;11.46;60.29
15604;BME280;7902;49.042;9.092;2023-02-20T04:51:33;100160.28;;;11.62;59.97
15604;BME280;7902;49.042;9.092;2023-02-20T04:53:59;100156.38;;;11.54;60.95
15604;BME280;7902;49.042;9.092;2023-02-20T04:56:25;100147.84;;;11.50;60.23
15604;BME280;7902;49.042;9.092;2023-02-20T04:58:51;100151.81;;;11.57;60.97
15604;BME280;7902;49.042;9.092;2023-02-20T05:01:17;100154.16;;;11.48;61.09
15604;BME280;7902;49.042;9.092;2023-02-20T05:03:42;100147.56;;;11.55;60.84
15604;BME280;7902;49.042;9.092;2023-02-20T05:06:08;100150.66;;;11.47;60.52
15604;BME280;7902;49.042;9.092;2023-02-20T05:08:34;100150.88;;;11.44;60.39
15604;BME280;7902;49.042;9.092;2023-02-20T05:11:00;100149.16;;;11.43;60.36
15604;BME280;7902;49.042;9.092;2023-02-20T05:13:26;100142.41;;;11.39;60.31
15604;BME280;7902;49.042;9.092;2023-02-20T05:15:52;100144.34;;;11.35;60.80
15604;BME280;7902;49.042;9.092;2023-02-20T05:18:28;100141.91;;;11.32;61.03
15604;BME280;7902;49.042;9.092;2023-02-20T05:20:54;100137.69;;;11.30;61.06
15604;BME280;7902;49.042;9.092;2023-02-20T05:23:38;100152.34;;;11.34;60.72
15604;BME280;7902;49.042;9.092;2023-02-20T05:26:09;100143.44;;;11.21;61.60
15604;BME280;7902;49.042;9.092;2023-02-20T05:28:35;100152.28;;;11.20;60.54
15604;BME280;7902;49.042;9.092;2023-02-20T05:31:02;100149.28;;;11.26;60.76
15604;BME280;7902;49.042;9.092;2023-02-20T05:33:27;100158.47;;;11.19;60.49
15604;BME280;7902;49.042;9.092;2023-02-20T05:35:53;100167.31;;;11.18;61.14
15604;BME280;7902;49.042;9.092;2023-02-20T05:38:19;100165.44;;;11.20;60.57
15604;BME280;7902;49.042;9.092;2023-02-20T05:40:45;100159.41;;;11.18;60.97
15604;BME280;7902;49.042;9.092;2023-02-20T05:43:11;100165.59;;;11.17;60.22
15604;BME280;7902;49.042;9.092;2023-02-20T05:45:37;100166.06;;;11.09;61.44
15604;BME280;7902;49.042;9.092;2023-02-20T05:48:03;100160.97;;;11.06;60.60
15604;BME280;7902;49.042;9.092;2023-02-20T05:50:29;100146.22;;;11.04;60.75
15604;BME280;7902;49.042;9.092;2023-02-20T05:52:55;100147.16;;;11.02;60.96
15604;BME280;7902;49.042;9.092;2023-02-20T05:55:21;100155.16;;;11.01;61.69
15604;BME280;7902;49.042;9.092;2023-02-20T05:57:47;100145.38;;;11.03;60.45
15604;BME280;7902;49.042;9.092;2023-02-20T06:00:13;100147.91;;;11.05;61.45
15604;BME280;7902;49.042;9.092;2023-02-20T06:02:39;100152.59;;;10.99;61.31
15604;BME280;7902;49.042;9.092;2023-02-20T06:05:05;100148.38;;;10.97;60.75
15604;BME280;7902;49.042;9.092;2023-02-20T06:07:33;100137.00;;;10.96;61.11
15604;BME280;7902;49.042;9.092;2023-02-20T06:09:59;100137.88;;;10.97;61.08
15604;BME280;7902;49.042;9.092;2023-02-20T06:12:25;100138.09;;;10.92;61.15
15604;BME280;7902;49.042;9.092;2023-02-20T06:14:51;100144.56;;;10.87;61.30
15604;BME280;7902;49.042;9.092;2023-02-20T06:17:17;100145.69;;;10.83;61.21
15604;BME280;7902;49.042;9.092;2023-02-20T06:19:42;100143.88;;;10.83;61.21
15604;BME280;7902;49.042;9.092;2023-02-20T06:22:08;100149.31;;;10.80;60.90
15604;BME280;7902;49.042;9.092;2023-02-20T06:24:34;100152.03;;;10.79;60.80
15604;BME280;7902;49.042;9.092;2023-02-20T06:27:00;100155.09;;;10.71;61.43
15604;BME280;7902;49.042;9.092;2023-02-20T06:29:26;100154.31;;;10.69;61.47
15604;BME280;7902;49.042;9.092;2023-02-20T06:31:57;100147.72;;;10.62;62.32
15604;BME280;7902;49.042;9.092;2023-02-20T06:34:23;100153.56;;;10.67;61.14
15604;BME280;7902;49.042;9.092;2023-02-20T06:36:50;100153.72;;;10.64;60.94
15604;BME280;7902;49.042;9.092;2023-02-20T06:39:16;100157.66;;;10.57;61.96
15604;BME280;7902;49.042;9.092;2023-02-20T06:41:42;100166.13;;;10.62;61.92
15604;BME280;7902;49.042;9.092;2023-02-20T06:44:09;100171.38;;;10.62;62.16
15604;BME280;7902;49.042;9.092;2023-02-20T06:46:35;100163.50;;;10.62;61.06
15604;BME280;7902;49.042;9.092;2023-02-20T06:49:00;100167.13;;;10.60;61.65
15604;BME280;7902;49.042;9.092;2023-02-20T06:51:29;100162.97;;;10.71;61.95
15604;BME280;7902;49.042;9.092;2023-02-20T06:53:55;100162.72;;;10.60;61.87
15604;BME280;7902;49.042;9.092;2023-02-20T06:56:25;100163.69;;;10.59;62.02
15604;BME280;7902;49.042;9.092;2023-02-20T06:58:52;100168.34;;;10.54;61.27
15604;BME280;7902;49.042;9.092;2023-02-20T07:01:20;100174.75;;;10.48;61.72
15604;BME280;7902;49.042;9.092;2023-02-20T07:03:47;100175.09;;;10.58;61.64
15604;BME280;7902;49.042;9.092;2023-02-20T07:06:14;100170.84;;;10.55;61.61
15604;BME280;7902;49.042;9.092;2023-02-20T07:08:40;100174.50;;;10.53;61.67
15604;BME280;7902;49.042;9.092;2023-02-20T07:11:06;100172.03;;;10.50;62.03
15604;BME280;7902;49.042;9.092;2023-02-20T07:13:32;100172.75;;;10.53;61.46
15604;BME280;7902;49.042;9.092;2023-02-20T07:15:58;100174.44;;;10.54;61.73
15604;BME280;7902;49.042;9.092;2023-02-20T07:18:24;100186.78;;;10.52;61.48
15604;BME280;7902;49.042;9.092;2023-02-20T07:20:54;100173.72;;;10.51;61.79
15604;BME280;7902;49.042;9.092;2023-02-20T07:23:21;100178.84;;;10.54;61.55
15604;BME280;7902;49.042;9.092;2023-02-20T07:25:47;100182.06;;;10.59;61.17
15604;BME280;7902;49.042;9.092;2023-02-20T07:28:15;100181.56;;;10.68;61.48
15604;BME280;7902;49.042;9.092;2023-02-20T07:30:42;100196.34;;;10.69;61.74
15604;BME280;7902;49.042;9.092;2023-02-20T07:33:08;100196.59;;;10.65;61.95
15604;BME280;7902;49.042;9.092;2023-02-20T07:35:34;100186.88;;;10.67;61.38
15604;BME280;7902;49.042;9.092;2023-02-20T07:38:00;100179.41;;;10.75;61.38
15604;BME280;7902;49.042;9.092;2023-02-20T07:40:26;100188.53;;;10.83;61.44
15604;BME280;7902;49.042;9.092;2023-02-20T07:42:52;100184.06;;;10.85;60.88
15604;BME280;7902;49.042;9.092;2023-02-20T07:45:19;100185.84;;;10.85;61.36
15604;BME280;7902;49.042;9.092;2023-02-20T07:47:45;100179.22;;;10.93;60.83
15604;BME280;7902;49.042;9.092;2023-02-20T07:50:13;100168.31;;;10.85;60.96
15604;BME280;7902;49.042;9.092;2023-02-20T07:52:39;100178.63;;;10.88;60.88
15604;BME280;7902;49.042;9.092;2023-02-20T07:55:05;100173.69;;;10.98;61.08
15604;BME280;7902;49.042;9.092;2023-02-20T07:57:33;100168.59;;;11.11;60.76
15604;BME280;7902;49.042;9.092;2023-02-20T07:59:59;100163.88;;;11.02;60.72
15604;BME280;7902;49.042;9.092;2023-02-20T08:02:25;100170.81;;;11.02;60.86
15604;BME280;7902;49.042;9.092;2023-02-20T08:04:51;100171.50;;;11.06;60.59
15604;BME280;7902;49.042;9.092;2023-02-20T08:07:17;100172.16;;;11.10;61.27
15604;BME280;7902;49.042;9.092;2023-02-20T08:09:45;100155.28;;;11.14;60.45
15604;BME280;7902;49.042;9.092;2023-02-20T08:12:11;100163.16;;;11.14;60.68
15604;BME280;7902;49.042;9.092;2023-02-20T08:14:38;100162.13;;;11.16;60.92
15604;BME280;7902;49.042;9.092;2023-02-20T08:17:03;100158.41;;;11.20;61.22
15604;BME280;7902;49.042;9.092;2023-02-20T08:19:29;100163.56;;;11.22;61.17
15604;BME280;7902;49.042;9.092;2023-02-20T08:21:55;100167.16;;;11.35;60.72
15604;BME280;7902;49.042;9.092;2023-02-20T08:24:21;100177.16;;;11.44;60.28
15604;BME280;7902;49.042;9.092;2023-02-20T08:26:48;100174.63;;;11.42;60.30
15604;BME280;7902;49.042;9.092;2023-02-20T08:29:15;100172.44;;;11.49;59.54
15604;BME280;7902;49.042;9.092;2023-02-20T08:31:41;100168.25;;;11.61;59.99
15604;BME280;7902;49.042;9.092;2023-02-20T08:34:07;100173.88;;;11.55;60.54
15604;BME280;7902;49.042;9.092;2023-02-20T08:36:33;100170.97;;;11.59;60.32
15604;BME280;7902;49.042;9.092;2023-02-20T08:38:59;100163.66;;;11.64;60.14
15604;BME280;7902;49.042;9.092;2023-02-20T08:41:26;100169.53;;;11.54;59.49
15604;BME280;7902;49.042;9.092;2023-02-20T08:43:52;100155.41;;;11.70;60.32
15604;BME280;7902;49.042;9.092;2023-02-20T08:46:18;100160.13;;;11.79;59.40
15604;BME280;7902;49.042;9.092;2023-02-20T08:48:43;100159.19;;;11.80;60.11
15604;BME280;7902;49.042;9.092;2023-02-20T08:51:11;100152.75;;;11.70;60.00
15604;BME280;7902;49.042;9.092;2023-02-20T08:53:38;100147.69;;;11.67;59.81
15604;BME280;7902;49.042;9.092;2023-02-20T08:56:05;100154.09;;;11.77;59.99
15604;BME280;7902;49.042;9.092;2023-02-20T08:58:31;100153.38;;;11.75;60.37
15604;BME280;7902;49.042;9.092;2023-02-20T09:00:57;100152.53;;;11.75;60.38
15604;BME280;7902;49.042;9.092;2023-02-20T09:03:23;100151.31;;;11.80;60.40
15604;BME280;7902;49.042;9.092;2023-02-20T09:05:49;100148.47;;;11.83;59.72
15604;BME280;7902;49.042;9.092;2023-02-20T09:08:15;100144.91;;;11.84;60.55
15604;BME280;7902;49.042;9.092;2023-02-20T09:10:41;100148.28;;;12.01;60.33
15604;BME280;7902;49.042;9.092;2023-02-20T09:13:07;100142.09;;;12.02;60.08
15604;BME280;7902;49.042;9.092;2023-02-20T09:15:33;100146.78;;;12.11;59.92
15604;BME280;7902;49.042;9.092;2023-02-20T09:18:10;100138.97;;;12.23;59.11
15604;BME280;7902;49.042;9.092;2023-02-20T09:20:37;100137.22;;;12.10;59.92
15604;BME280;7902;49.042;9.092;2023-02-20T09:23:04;100132.06;;;12.35;58.84
15604;BME280;7902;49.042;9.092;2023-02-20T09:25:30;100124.00;;;12.38;59.86
15604;BME280;7902;49.042;9.092;2023-02-20T09:27:56;100117.47;;;12.44;59.43
15604;BME280;7902;49.042;9.092;2023-02-20T09:30:22;100115.75;;;12.57;59.23
15604;BME280;7902;49.042;9.092;2023-02-20T09:32:48;100115.47;;;12.61;58.78
15604;BME280;7902;49.042;9.092;2023-02-20T09:35:22;100122.41;;;12.62;59.60
15604;BME280;7902;49.042;9.092;2023-02-20T09:37:48;100115.28;;;12.77;58.99
15604;BME280;7902;49.042;9.092;2023-02-20T09:43:04;100100.88;;;12.83;58.35
15604;BME280;7902;49.042;9.092;2023-02-20T09:45:40;100101.28;;;12.76;58.37
15604;BME280;7902;49.042;9.092;2023-02-20T09:48:30;100103.28;;;12.86;57.89
15604;BME280;7902;49.042;9.092;2023-02-20T09:51:04;100093.84;;;12.96;57.54
15604;BME280;7902;49.042;9.092;2023-02-20T09:53:51;100097.91;;;13.14;56.74
15604;BME280;7902;49.042;9.092;2023-02-20T09:56:24;100092.31;;;13.18;56.28
15604;BME280;7902;49.042;9.092;2023-02-20T09:58:57;100093.44;;;13.02;54.70
15604;BME280;7902;49.042;9.092;2023-02-20T10:01:27;100083.38;;;13.34;54.84
15604;BME280;7902;49.042;9.092;2023-02-20T10:03:56;100097.63;;;13.31;55.13
15604;BME280;7902;49.042;9.092;2023-02-20T10:06:28;100090.34;;;13.35;53.84
15604;BME280;7902;49.042;9.092;2023-02-20T10:08:55;100096.91;;;13.54;54.36
15604;BME280;7902;49.042;9.092;2023-02-20T10:16:58;100082.13;;;13.39;53.49
15604;BME280;7902;49.042;9.092;2023-02-20T10:19:48;100080.34;;;13.40;53.23
15604;BME280;7902;49.042;9.092;2023-02-20T10:22:27;100078.31;;;13.43;53.94
15604;BME280;7902;49.042;9.092;2023-02-20T10:25:08;100070.63;;;13.40;53.61
15604;BME280;7902;49.042;9.092;2023-02-20T10:30:22;100082.31;;;13.61;53.56
15604;BME280;7902;49.042;9.092;2023-02-20T10:35:43;100085.06;;;13.73;52.75
15604;BME280;7902;49.042;9.092;2023-02-20T10:38:13;100072.00;;;13.58;52.35
15604;BME280;7902;49.042;9.092;2023-02-20T10:40:47;100072.91;;;13.70;52.38
15604;BME280;7902;49.042;9.092;2023-02-20T10:43:27;100069.44;;;13.82;53.32
15604;BME280;7902;49.042;9.092;2023-02-20T10:46:08;100071.88;;;13.73;52.39
15604;BME280;7902;49.042;9.092;2023-02-20T10:48:37;100071.09;;;13.96;52.34
15604;BME280;7902;49.042;9.092;2023-02-20T10:51:13;100065.53;;;13.88;53.47
15604;BME280;7902;49.042;9.092;2023-02-20T10:54:03;100060.31;;;13.99;52.76
15604;BME280;7902;49.042;9.092;2023-02-20T10:56:47;100052.81;;;14.05;52.94
15604;BME280;7902;49.042;9.092;2023-02-20T10:59:29;100052.47;;;14.10;52.33
15604;BME280;7902;49.042;9.092;2023-02-20T11:02:00;100053.94;;;14.14;52.26
15604;BME280;7902;49.042;9.092;2023-02-20T11:04:34;100052.59;;;14.32;51.25
15604;BME280;7902;49.042;9.092;2023-02-20T11:07:09;100053.69;;;14.30;51.83
15604;BME280;7902;49.042;9.092;2023-02-20T11:09:36;100043.97;;;14.30;51.60
15604;BME280;7902;49.042;9.092;2023-02-20T11:12:03;100046.19;;;14.24;52.72
15604;BME280;7902;49.042;9.092;2023-02-20T11:14:44;100039.72;;;14.28;50.30
15604;BME280;7902;49.042;9.092;2023-02-20T11:17:16;100040.13;;;14.34;51.39
15604;BME280;7902;49.042;9.092;2023-02-20T11:19:48;100026.25;;;14.20;51.42
15604;BME280;7902;49.042;9.092;2023-02-20T11:22:16;100034.56;;;14.26;51.57
15604;BME280;7902;49.042;9.092;2023-02-20T11:24:44;100032.81;;;14.14;51.13
15604;BME280;7902;49.042;9.092;2023-02-20T11:27:14;100024.38;;;14.09;51.64
15604;BME280;7902;49.042;9.092;2023-02-20T11:30:02;100019.81;;;14.11;51.20
15604;BME280;7902;49.042;9.092;2023-02-20T11:32:35;100013.03;;;14.20;51.57
15604;BME280;7902;49.042;9.092;2023-02-20T11:37:44;99995.72;;;14.16;52.19
15604;BME280;7902;49.042;9.092;2023-02-20T11:40:24;99989.03;;;14.23;51.96
15604;BME280;7902;49.042;9.092;2023-02-20T11:42:51;99988.00;;;14.13;52.19
15604;BME280;7902;49.042;9.092;2023-02-20T11:45:27;99987.06;;;14.14;52.02
15604;BME280;7902;49.042;9.092;2023-02-20T11:48:14;99987.97;;;14.25;52.39
15604;BME280;7902;49.042;9.092;2023-02-20T11:50:48;99976.72;;;14.34;51.36
15604;BME280;7902;49.042;9.092;2023-02-20T11:53:37;99970.19;;;14.27;51.79
15604;BME280;7902;49.042;9.092;2023-02-20T11:56:17;99973.56;;;14.29;52.50
15604;BME280;7902;49.042;9.092;2023-02-20T11:58:45;99963.31;;;14.37;52.66
15604;BME280;7902;49.042;9.092;2023-02-20T12:01:29;99959.81;;;14.37;51.38
15604;BME280;7902;49.042;9.092;2023-02-20T12:03:57;99957.97;;;14.26;52.54
15604;BME280;7902;49.042;9.092;2023-02-20T12:09:01;99950.84;;;14.50;51.53
15604;BME280;7902;49.042;9.092;2023-02-20T12:11:28;99939.72;;;14.34;52.02
15604;BME280;7902;49.042;9.092;2023-02-20T12:13:56;99934.84;;;14.41;51.86
15604;BME280;7902;49.042;9.092;2023-02-20T12:22:14;99922.03;;;14.47;51.63
15604;BME280;7902;49.042;9.092;2023-02-20T12:25:03;99916.47;;;14.39;52.11
15604;BME280;7902;49.042;9.092;2023-02-20T12:27:45;99915.28;;;14.43;51.03
15604;BME280;7902;49.042;9.092;2023-02-20T12:33:17;99910.34;;;14.39;52.53
15604;BME280;7902;49.042;9.092;2023-02-20T12:41:30;99892.41;;;14.66;51.22
15604;BME280;7902;49.042;9.092;2023-02-20T12:44:33;99881.22;;;14.74;50.87
15604;BME280;7902;49.042;9.092;2023-02-20T12:47:11;99882.94;;;14.86;50.38
15604;BME280;7902;49.042;9.092;2023-02-20T12:52:33;99883.03;;;14.84;49.61
15604;BME280;7902;49.042;9.092;2023-02-20T13:00:58;99871.88;;;14.92;50.73
15604;BME280;7902;49.042;9.092;2023-02-20T13:03:46;99863.94;;;14.81;49.80
15604;BME280;7902;49.042;9.092;2023-02-20T13:07:07;99869.94;;;14.94;48.84
15604;BME280;7902;49.042;9.092;2023-02-20T13:09:17;99867.66;;;14.89;50.18
15604;BME280;7902;49.042;9.092;2023-02-20T13:11:47;99854.66;;;14.98;50.09
15604;BME280;7902;49.042;9.092;2023-02-20T13:19:41;99839.44;;;15.01;50.68
15604;BME280;7902;49.042;9.092;2023-02-20T13:22:10;99823.78;;;15.09;50.68
15604;BME280;7902;49.042;9.092;2023-02-20T13:24:37;99826.41;;;15.20;48.26
15604;BME280;7902;49.042;9.092;2023-02-20T13:27:06;99816.06;;;15.28;48.87
15604;BME280;7902;49.042;9.092;2023-02-20T13:29:37;99808.81;;;15.30;48.69
15604;BME280;7902;49.042;9.092;2023-02-20T13:34:42;99796.81;;;15.26;49.22
15604;BME280;7902;49.042;9.092;2023-02-20T13:43:18;99789.50;;;15.08;50.01
15604;BME280;7902;49.042;9.092;2023-02-20T13:56:17;99780.44;;;15.75;48.26
15604;BME280;7902;49.042;9.092;2023-02-20T13:58:44;99775.53;;;15.71;49.77
15604;BME280;7902;49.042;9.092;2023-02-20T14:01:10;99769.53;;;15.90;48.59
15604;BME280;7902;49.042;9.092;2023-02-20T14:03:37;99770.44;;;16.00;47.80
15604;BME280;7902;49.042;9.092;2023-02-20T14:06:05;99771.41;;;16.19;47.24
15604;BME280;7902;49.042;9.092;2023-02-20T14:08:32;99772.69;;;16.25;46.94
15604;BME280;7902;49.042;9.092;2023-02-20T14:11:06;99760.28;;;16.25;46.39
15604;BME280;7902;49.042;9.092;2023-02-20T14:13:32;99772.44;;;16.07;47.44
15604;BME280;7902;49.042;9.092;2023-02-20T14:15:59;99770.75;;;16.06;47.39
15604;BME280;7902;49.042;9.092;2023-02-20T14:18:33;99775.25;;;15.74;47.73
15604;BME280;7902;49.042;9.092;2023-02-20T14:21:18;99772.13;;;16.01;47.45
15604;BME280;7902;49.042;9.092;2023-02-20T14:23:46;99768.81;;;15.88;47.69
15604;BME280;7902;49.042;9.092;2023-02-20T14:26:24;99758.97;;;15.78;48.28
15604;BME280;7902;49.042;9.092;2023-02-20T14:28:53;99763.91;;;15.83;49.83
15604;BME280;7902;49.042;9.092;2023-02-20T14:33:50;99743.41;;;15.64;48.61
15604;BME280;7902;49.042;9.092;2023-02-20T14:38:56;99743.69;;;15.50;48.10
15604;BME280;7902;49.042;9.092;2023-02-20T14:41:26;99744.75;;;15.59;48.90
15604;BME280;7902;49.042;9.092;2023-02-20T14:43:57;99737.53;;;15.61;47.68
15604;BME280;7902;49.042;9.092;2023-02-20T14:46:29;99742.75;;;15.51;48.21
15604;BME280;7902;49.042;9.092;2023-02-20T14:49:16;99745.00;;;15.56;46.75
15604;BME280;7902;49.042;9.092;2023-02-20T14:51:47;99737.03;;;15.67;47.70
15604;BME280;7902;49.042;9.092;2023-02-20T14:56:39;99741.16;;;15.60;47.43
15604;BME280;7902;49.042;9.092;2023-02-20T14:59:24;99742.44;;;15.65;48.95